Time;durP1;ratioP1;P1;durP2;ratioP2;P2;SDS_P1;SDS_P2;PMS_P1;PMS_P2;Temp;Humidity;BMP_temperature;BMP_pressure;BME280_temperature;BME280_humidity;BME280_pressure;Samples;Min_cycle;Max_cycle;Signal;HPM_P1;HPM_P2
2021/01/30 00:02:55;;;;;;;0.37;0.33;;;6.60;99.90;;;;;;6085273;29;20240;-78
2021/01/30 00:05:58;;;;;;;2.40;0.90;;;6.60;99.90;;;;;;6085389;29;20244;-78
2021/01/30 00:09:00;;;;;;;1.63;0.60;;;6.60;99.90;;;;;;6085037;29;20382;-79
2021/01/30 00:12:02;;;;;;;2.77;1.17;;;6.60;99.90;;;;;;6070389;29;20236;-80
2021/01/30 00:15:06;;;;;;;1.77;0.57;;;6.60;99.90;;;;;;6071726;29;20582;-79
2021/01/30 00:18:08;;;;;;;0.80;0.50;;;6.60;99.90;;;;;;6085620;29;20712;-79
2021/01/30 00:21:11;;;;;;;1.63;0.63;;;6.60;99.90;;;;;;6084547;29;20231;-79
2021/01/30 00:24:13;;;;;;;2.40;0.80;;;6.50;99.90;;;;;;6084701;29;20220;-78
2021/01/30 00:27:20;;;;;;;0.57;0.47;;;6.50;99.90;;;;;;6084830;29;20223;-79
2021/01/30 00:30:24;;;;;;;1.53;0.80;;;6.50;99.90;;;;;;6074419;29;20232;-78
2021/01/30 00:33:27;;;;;;;1.73;0.80;;;6.50;99.90;;;;;;6050122;29;20236;-78
2021/01/30 00:36:31;;;;;;;2.33;1.20;;;6.50;99.90;;;;;;6042567;29;20280;-78
2021/01/30 00:39:33;;;;;;;1.20;0.80;;;6.50;99.90;;;;;;6058558;29;20493;-78
2021/01/30 00:42:35;;;;;;;4.73;0.80;;;6.50;99.90;;;;;;6058893;29;20607;-78
2021/01/30 00:45:37;;;;;;;0.97;0.60;;;6.60;99.90;;;;;;6058014;29;20224;-78
2021/01/30 00:48:40;;;;;;;0.93;0.50;;;6.50;99.90;;;;;;6059167;29;20736;-78
2021/01/30 00:51:43;;;;;;;2.43;0.63;;;6.60;99.90;;;;;;6058401;29;20231;-78
2021/01/30 00:54:45;;;;;;;1.70;0.53;;;6.50;99.90;;;;;;6061084;29;20320;-79
2021/01/30 00:57:47;;;;;;;1.50;0.67;;;6.60;99.90;;;;;;6066074;29;20232;-79
2021/01/30 01:00:49;;;;;;;0.60;0.50;;;6.70;99.90;;;;;;6066192;29;20376;-79
2021/01/30 01:03:56;;;;;;;5.20;0.70;;;6.70;99.90;;;;;;6051931;29;20715;-79
2021/01/30 01:06:58;;;;;;;0.70;0.50;;;6.70;99.90;;;;;;6066284;29;20890;-78
2021/01/30 01:10:00;;;;;;;0.67;0.53;;;6.70;99.90;;;;;;6067644;29;20311;-79
2021/01/30 01:13:03;;;;;;;0.67;0.57;;;6.60;99.90;;;;;;6067274;29;20911;-79
2021/01/30 01:16:05;;;;;;;1.63;0.50;;;6.60;99.90;;;;;;6051030;29;20359;-79
2021/01/30 01:19:07;;;;;;;1.17;0.70;;;6.50;99.90;;;;;;6067911;29;20888;-79
2021/01/30 01:22:14;;;;;;;0.57;0.33;;;6.50;99.90;;;;;;6057365;29;20304;-82
2021/01/30 01:25:18;;;;;;;1.43;0.50;;;6.60;99.90;;;;;;6074088;29;20276;-83
2021/01/30 01:28:20;;;;;;;2.23;0.70;;;6.60;99.90;;;;;;6068479;29;20232;-79
2021/01/30 01:31:22;;;;;;;1.00;0.47;;;6.70;99.90;;;;;;6062468;29;20239;-79
2021/01/30 01:34:27;;;;;;;0.70;0.50;;;6.70;99.90;;;;;;6049826;29;20275;-79
2021/01/30 01:37:29;;;;;;;1.33;0.60;;;6.70;99.90;;;;;;6064969;29;20595;-79
2021/01/30 01:40:38;;;;;;;1.20;0.50;;;6.70;99.90;;;;;;6044756;29;20237;-79
2021/01/30 01:43:40;;;;;;;1.10;0.67;;;6.70;99.90;;;;;;6040934;29;20247;-78
2021/01/30 01:46:41;;;;;;;0.63;0.40;;;6.70;99.90;;;;;;6025017;29;20794;-79
2021/01/30 01:49:45;;;;;;;0.60;0.40;;;6.70;99.90;;;;;;6025398;29;20339;-78
2021/01/30 01:52:47;;;;;;;0.40;0.40;;;6.70;99.90;;;;;;6025762;29;20241;-79
2021/01/30 01:55:54;;;;;;;1.13;0.60;;;6.70;99.90;;;;;;6026564;29;20244;-78
2021/01/30 01:59:14;;;;;;;3.73;0.57;;;6.60;99.90;;;;;;6040766;29;20641;-78
2021/01/30 02:02:16;;;;;;;0.57;0.50;;;6.70;99.90;;;;;;6040605;29;20225;-78
2021/01/30 02:05:22;;;;;;;0.80;0.40;;;6.70;99.90;;;;;;6040367;29;20244;-78
2021/01/30 02:08:24;;;;;;;0.70;0.40;;;6.70;99.90;;;;;;6039890;29;20586;-79
2021/01/30 02:11:26;;;;;;;0.33;0.33;;;6.60;99.90;;;;;;6040307;29;20252;-79
2021/01/30 02:14:31;;;;;;;1.23;0.43;;;6.50;99.90;;;;;;6040099;29;20609;-78
2021/01/30 02:17:53;;;;;;;1.53;0.50;;;6.50;99.90;;;;;;6025388;29;20241;-78
2021/01/30 02:20:58;;;;;;;0.63;0.20;;;6.60;99.90;;;;;;6040552;29;20664;-78
2021/01/30 02:24:21;;;;;;;0.63;0.33;;;6.60;99.90;;;;;;6040651;29;20244;-79
2021/01/30 02:27:57;;;;;;;0.53;0.37;;;6.60;99.90;;;;;;6026911;29;20240;-78
2021/01/30 02:31:23;;;;;;;0.33;0.33;;;6.60;99.90;;;;;;6041430;29;20658;-78
2021/01/30 02:35:03;;;;;;;0.30;0.20;;;6.60;99.90;;;;;;6042906;29;20788;-78
2021/01/30 02:38:19;;;;;;;0.40;0.30;;;6.60;99.90;;;;;;6026491;29;20259;-79
2021/01/30 02:41:29;;;;;;;0.10;0.10;;;6.70;99.90;;;;;;6040076;29;20324;-79
2021/01/30 02:44:36;;;;;;;0.20;0.20;;;6.70;99.90;;;;;;6007287;29;20254;-79
2021/01/30 02:47:46;;;;;;;0.57;0.30;;;6.70;99.90;;;;;;6036958;29;20237;-79
2021/01/30 02:50:57;;;;;;;0.57;0.40;;;6.70;99.90;;;;;;6026886;29;20626;-79
2021/01/30 02:54:01;;;;;;;0.40;0.40;;;6.60;99.90;;;;;;6045285;29;20252;-78
2021/01/30 02:57:07;;;;;;;0.30;0.30;;;6.60;99.90;;;;;;6028210;29;20333;-79
2021/01/30 03:00:12;;;;;;;0.20;0.20;;;6.60;99.90;;;;;;6023577;29;20725;-79
2021/01/30 03:03:16;;;;;;;0.30;0.30;;;6.60;99.90;;;;;;6040191;29;20209;-79
2021/01/30 03:06:31;;;;;;;0.60;0.20;;;6.60;99.90;;;;;;6040416;29;20241;-79
2021/01/30 03:09:42;;;;;;;0.30;0.30;;;6.60;99.90;;;;;;6039709;29;20233;-79
2021/01/30 03:12:53;;;;;;;0.30;0.30;;;6.50;99.90;;;;;;6040752;29;20237;-79
2021/01/30 03:16:08;;;;;;;0.63;0.20;;;6.50;99.90;;;;;;6040308;29;20258;-79
2021/01/30 03:19:20;;;;;;;0.37;0.30;;;6.50;99.90;;;;;;6040326;29;20244;-79
2021/01/30 03:22:24;;;;;;;1.07;0.30;;;6.60;99.90;;;;;;6040024;29;20328;-78
2021/01/30 03:25:28;;;;;;;0.30;0.30;;;6.60;99.90;;;;;;6041928;29;20734;-82
2021/01/30 03:28:29;;;;;;;0.40;0.40;;;6.60;99.90;;;;;;6042475;29;20260;-82
2021/01/30 03:31:31;;;;;;;0.30;0.20;;;6.60;99.90;;;;;;6043552;29;20308;-82
2021/01/30 03:34:34;;;;;;;1.13;0.30;;;6.60;99.90;;;;;;6028567;29;20265;-82
2021/01/30 03:37:37;;;;;;;1.07;0.30;;;6.60;99.90;;;;;;6063891;29;20270;-82
2021/01/30 03:40:39;;;;;;;0.40;0.30;;;6.70;99.90;;;;;;6067316;29;20246;-82
2021/01/30 03:43:41;;;;;;;0.40;0.27;;;6.70;99.90;;;;;;6067595;29;20240;-83
2021/01/30 03:46:43;;;;;;;0.30;0.30;;;6.70;99.90;;;;;;6068051;29;20268;-82
2021/01/30 03:49:46;;;;;;;0.20;0.20;;;6.70;99.90;;;;;;6067170;29;20700;-82
2021/01/30 03:52:48;;;;;;;0.20;0.20;;;6.70;99.90;;;;;;6063482;29;20232;-82
2021/01/30 03:55:50;;;;;;;0.30;0.30;;;6.60;99.90;;;;;;6060332;29;20229;-81
2021/01/30 03:58:52;;;;;;;0.20;0.20;;;6.50;99.90;;;;;;6062024;29;20237;-82
2021/01/30 04:01:54;;;;;;;0.30;0.30;;;6.60;99.90;;;;;;6062784;29;20255;-82
2021/01/30 04:04:56;;;;;;;0.73;0.30;;;6.60;99.90;;;;;;6064986;29;20235;-82
2021/01/30 04:08:00;;;;;;;0.57;0.30;;;6.60;99.90;;;;;;6062737;29;20229;-82
2021/01/30 04:11:02;;;;;;;0.30;0.30;;;6.70;99.90;;;;;;6064870;29;20649;-82
2021/01/30 04:14:03;;;;;;;0.43;0.30;;;6.70;99.90;;;;;;6063530;29;20718;-82
2021/01/30 04:17:09;;;;;;;0.30;0.30;;;6.60;99.90;;;;;;6048926;29;20239;-82
2021/01/30 04:20:15;;;;;;;0.10;0.10;;;6.50;99.90;;;;;;6063834;29;20244;-82
2021/01/30 04:23:18;;;;;;;0.43;0.30;;;6.50;99.90;;;;;;6050403;29;20778;-81
2021/01/30 04:26:20;;;;;;;0.30;0.30;;;6.60;99.90;;;;;;6067154;29;20240;-82
2021/01/30 04:29:22;;;;;;;0.67;0.33;;;6.60;99.90;;;;;;6068878;29;20240;-82
2021/01/30 04:32:24;;;;;;;0.27;0.20;;;6.60;99.90;;;;;;6068532;29;20232;-82
2021/01/30 04:35:32;;;;;;;0.40;0.30;;;6.60;99.90;;;;;;6071845;29;20232;-82
2021/01/30 04:38:34;;;;;;;0.30;0.30;;;6.60;99.90;;;;;;6088486;29;20235;-82
2021/01/30 04:41:52;;;;;;;0.50;0.30;;;6.60;99.90;;;;;;6070518;29;20364;-82
2021/01/30 04:45:33;;;;;;;1.70;0.40;;;6.60;99.90;;;;;;6070234;29;20236;-81
2021/01/30 04:48:54;;;;;;;0.30;0.30;;;6.50;99.90;;;;;;6054127;29;20235;-82
2021/01/30 04:52:28;;;;;;;1.37;0.70;;;6.60;99.90;;;;;;6054961;29;20622;-81
2021/01/30 04:55:36;;;;;;;0.30;0.30;;;6.70;99.90;;;;;;6069194;29;20252;-82
2021/01/30 04:58:54;;;;;;;0.33;0.20;;;6.70;99.90;;;;;;6069445;29;20611;-81
2021/01/30 05:02:11;;;;;;;0.23;0.20;;;6.60;99.90;;;;;;6068665;29;20634;-82
2021/01/30 05:05:19;;;;;;;0.20;0.20;;;6.60;99.90;;;;;;6073642;29;20243;-82
2021/01/30 05:08:34;;;;;;;0.40;0.30;;;6.60;99.90;;;;;;6070541;29;20243;-82
2021/01/30 05:11:38;;;;;;;0.27;0.27;;;6.60;99.90;;;;;;6078756;29;20283;-82
2021/01/30 05:15:11;;;;;;;1.47;0.27;;;6.60;99.90;;;;;;6076015;29;20320;-82
2021/01/30 05:18:16;;;;;;;0.40;0.40;;;6.70;99.90;;;;;;6076284;29;20247;-82
2021/01/30 05:21:26;;;;;;;0.40;0.20;;;6.70;99.90;;;;;;6076375;29;20224;-82
2021/01/30 05:24:29;;;;;;;0.23;0.23;;;6.60;99.90;;;;;;6060136;29;20232;-82
2021/01/30 05:27:49;;;;;;;0.20;0.20;;;6.70;99.90;;;;;;6061234;29;20235;-82
2021/01/30 05:31:21;;;;;;;0.20;0.20;;;6.80;99.90;;;;;;6075822;29;20236;-82
2021/01/30 05:34:34;;;;;;;0.33;0.33;;;6.90;99.90;;;;;;6077108;29;20777;-82
2021/01/30 05:37:46;;;;;;;0.40;0.40;;;6.90;99.90;;;;;;6050905;29;20320;-84
2021/01/30 05:41:02;;;;;;;0.30;0.20;;;7.00;99.90;;;;;;6025734;29;20682;-85
2021/01/30 05:44:14;;;;;;;0.43;0.30;;;7.00;99.90;;;;;;6039105;29;20292;-83
2021/01/30 05:47:29;;;;;;;1.40;0.30;;;6.90;99.90;;;;;;6054608;29;20237;-84
2021/01/30 05:50:50;;;;;;;0.30;0.30;;;6.90;99.90;;;;;;6054985;29;20288;-84
2021/01/30 05:53:51;;;;;;;0.20;0.20;;;6.90;99.90;;;;;;6058739;29;20699;-85
2021/01/30 05:56:53;;;;;;;0.43;0.33;;;6.80;99.90;;;;;;6045057;29;20669;-84
2021/01/30 05:59:59;;;;;;;1.60;0.77;;;6.80;99.90;;;;;;6076271;29;20300;-84
2021/01/30 06:03:07;;;;;;;1.37;0.27;;;6.90;99.90;;;;;;6045794;29;20268;-84
2021/01/30 06:06:09;;;;;;;0.40;0.40;;;6.80;99.90;;;;;;6067716;29;20341;-84
2021/01/30 06:09:32;;;;;;;0.30;0.30;;;6.80;99.90;;;;;;6068982;29;20263;-85
2021/01/30 06:12:36;;;;;;;0.43;0.30;;;6.90;99.90;;;;;;6053775;29;20233;-84
2021/01/30 06:15:42;;;;;;;0.40;0.40;;;6.90;99.90;;;;;;6067619;29;20558;-84
2021/01/30 06:18:43;;;;;;;0.30;0.30;;;6.80;99.90;;;;;;6066963;29;20324;-84
2021/01/30 06:21:48;;;;;;;0.50;0.40;;;6.80;99.90;;;;;;6051535;29;20714;-85
2021/01/30 06:24:50;;;;;;;0.50;0.50;;;6.80;99.90;;;;;;6069634;29;20248;-84
2021/01/30 06:27:57;;;;;;;0.43;0.43;;;6.80;99.90;;;;;;6068186;29;20232;-84
2021/01/30 06:31:25;;;;;;;0.70;0.40;;;6.90;99.90;;;;;;6055689;29;20228;-84
2021/01/30 06:34:34;;;;;;;0.57;0.40;;;6.90;99.90;;;;;;6069804;29;20240;-84
2021/01/30 06:37:48;;;;;;;0.27;0.27;;;7.00;99.90;;;;;;6088506;29;20259;-84
2021/01/30 06:40:56;;;;;;;0.90;0.30;;;7.00;99.90;;;;;;6078237;29;20266;-84
2021/01/30 06:43:57;;;;;;;1.03;0.47;;;6.90;99.90;;;;;;6076518;29;20236;-84
2021/01/30 06:47:18;;;;;;;0.87;0.30;;;6.90;99.90;;;;;;6077231;29;20289;-84
2021/01/30 06:50:42;;;;;;;0.93;0.30;;;6.90;99.90;;;;;;6063085;29;20291;-85
2021/01/30 06:53:44;;;;;;;0.67;0.40;;;6.80;99.90;;;;;;6077412;29;20252;-85
2021/01/30 06:57:04;;;;;;;0.40;0.30;;;6.70;99.90;;;;;;6062070;29;20247;-84
2021/01/30 07:00:07;;;;;;;0.63;0.40;;;6.80;99.90;;;;;;6076804;29;20236;-84
2021/01/30 07:03:34;;;;;;;1.80;0.67;;;6.80;99.90;;;;;;6079209;29;20203;-84
2021/01/30 07:07:18;;;;;;;0.90;0.50;;;6.80;99.90;;;;;;6060314;29;20242;-85
2021/01/30 07:10:39;;;;;;;0.43;0.20;;;6.80;99.90;;;;;;6078951;29;20236;-85
2021/01/30 07:14:05;;;;;;;1.17;0.40;;;6.80;99.90;;;;;;6078945;29;20329;-84
2021/01/30 07:17:17;;;;;;;1.67;0.37;;;6.80;99.90;;;;;;6064929;29;20239;-85
2021/01/30 07:20:37;;;;;;;0.43;0.30;;;6.90;99.90;;;;;;6079757;29;20585;-84
2021/01/30 07:23:49;;;;;;;0.43;0.33;;;7.00;99.90;;;;;;6058730;29;20235;-83
2021/01/30 07:27:00;;;;;;;1.57;0.50;;;7.20;99.90;;;;;;6073329;29;20283;-84
2021/01/30 07:30:05;;;;;;;0.60;0.60;;;7.20;99.90;;;;;;6057114;29;20232;-84
2021/01/30 07:33:15;;;;;;;0.30;0.20;;;7.20;99.90;;;;;;6073262;29;20236;-84
2021/01/30 07:36:26;;;;;;;1.07;0.20;;;7.20;99.90;;;;;;6073326;29;20264;-85
2021/01/30 07:39:31;;;;;;;0.60;0.30;;;7.10;99.90;;;;;;6078203;29;20243;-83
2021/01/30 07:42:48;;;;;;;1.10;0.30;;;7.10;99.90;;;;;;6084579;29;20228;-84
2021/01/30 07:45:56;;;;;;;0.50;0.47;;;7.20;99.90;;;;;;6058641;29;20232;-84
2021/01/30 07:49:08;;;;;;;0.70;0.30;;;7.40;99.90;;;;;;6057950;29;20228;-84
2021/01/30 07:52:20;;;;;;;0.30;0.30;;;7.30;99.90;;;;;;6075043;29;20256;-84
2021/01/30 07:55:22;;;;;;;0.63;0.27;;;7.40;99.90;;;;;;6059487;29;20239;-83
2021/01/30 07:58:49;;;;;;;0.23;0.20;;;7.40;99.90;;;;;;6074874;29;20370;-84
2021/01/30 08:01:57;;;;;;;0.20;0.20;;;7.50;99.90;;;;;;6057968;29;20267;-83
2021/01/30 08:05:20;;;;;;;0.30;0.30;;;7.50;99.90;;;;;;6092147;29;20301;-85
2021/01/30 08:08:28;;;;;;;0.57;0.23;;;7.50;99.90;;;;;;6075760;29;20232;-83
2021/01/30 08:11:39;;;;;;;0.83;0.20;;;7.50;99.90;;;;;;6060349;29;20279;-84
2021/01/30 08:14:44;;;;;;;0.20;0.20;;;7.60;99.90;;;;;;6076067;29;20738;-85
2021/01/30 08:18:07;;;;;;;0.30;0.20;;;7.60;99.90;;;;;;6078258;29;20232;-85
2021/01/30 08:21:37;;;;;;;0.53;0.20;;;7.70;99.90;;;;;;6076772;29;20243;-84
2021/01/30 08:24:47;;;;;;;0.23;0.20;;;7.70;99.90;;;;;;6075970;29;20239;-84
2021/01/30 08:27:56;;;;;;;0.77;0.43;;;7.80;99.90;;;;;;6060306;29;20647;-84
2021/01/30 08:30:58;;;;;;;0.50;0.30;;;7.80;99.90;;;;;;6078097;29;20249;-85
2021/01/30 08:34:09;;;;;;;0.53;0.20;;;7.90;99.90;;;;;;6061938;29;20244;-84
2021/01/30 08:37:11;;;;;;;0.43;0.30;;;7.90;99.90;;;;;;6078127;29;20244;-84
2021/01/30 08:40:15;;;;;;;0.73;0.20;;;8.00;99.90;;;;;;6078512;29;20283;-85
2021/01/30 08:43:43;;;;;;;0.47;0.20;;;7.90;99.90;;;;;;6078959;29;20299;-84
2021/01/30 08:46:45;;;;;;;0.20;0.20;;;8.00;99.90;;;;;;6077978;29;20232;-84
2021/01/30 08:50:32;;;;;;;0.37;0.30;;;8.00;99.90;;;;;;6061181;29;20228;-84
2021/01/30 08:53:36;;;;;;;0.80;0.43;;;8.00;99.90;;;;;;6066857;29;20256;-83
2021/01/30 08:56:51;;;;;;;0.40;0.40;;;8.00;99.90;;;;;;6065124;29;20254;-84
2021/01/30 08:59:53;;;;;;;0.67;0.50;;;8.00;99.90;;;;;;6065251;29;20821;-83
2021/01/30 09:02:57;;;;;;;0.23;0.23;;;8.00;99.90;;;;;;6066107;29;20613;-83
2021/01/30 09:05:59;;;;;;;0.67;0.33;;;8.00;99.90;;;;;;6065280;29;20803;-83
2021/01/30 09:09:07;;;;;;;0.93;0.30;;;8.10;99.90;;;;;;6049113;29;20225;-84
2021/01/30 09:12:09;;;;;;;0.63;0.30;;;8.20;99.90;;;;;;6065422;29;20259;-84
2021/01/30 09:15:30;;;;;;;1.60;0.30;;;8.30;99.90;;;;;;6067522;29;20227;-84
2021/01/30 09:18:34;;;;;;;0.40;0.30;;;8.40;99.90;;;;;;6059602;29;20224;-84
2021/01/30 09:21:49;;;;;;;0.67;0.37;;;8.40;99.90;;;;;;6056160;29;20332;-85
2021/01/30 09:25:11;;;;;;;0.50;0.37;;;8.40;99.90;;;;;;6072790;29;20232;-84
2021/01/30 09:28:21;;;;;;;0.93;0.27;;;8.40;99.90;;;;;;6071153;29;20232;-84
2021/01/30 09:31:27;;;;;;;0.50;0.20;;;8.50;99.90;;;;;;6055479;29;20578;-84
2021/01/30 09:34:33;;;;;;;0.30;0.30;;;8.40;99.90;;;;;;6069501;29;20252;-84
2021/01/30 09:37:41;;;;;;;2.30;0.93;;;8.50;99.90;;;;;;6061827;29;20322;-84
2021/01/30 09:40:43;;;;;;;1.77;0.50;;;8.70;99.90;;;;;;6040760;29;20605;-84
2021/01/30 09:43:45;;;;;;;0.33;0.33;;;8.80;99.90;;;;;;6024285;29;20231;-84
2021/01/30 09:46:56;;;;;;;0.60;0.40;;;9.00;99.90;;;;;;6037740;29;20735;-83
2021/01/30 09:50:12;;;;;;;0.33;0.30;;;9.10;99.90;;;;;;6023301;29;20255;-85
2021/01/30 09:53:23;;;;;;;0.50;0.30;;;9.20;99.90;;;;;;6040194;29;20259;-83
2021/01/30 09:56:32;;;;;;;1.43;0.40;;;9.30;99.90;;;;;;6039970;29;20237;-83
2021/01/30 09:59:35;;;;;;;2.07;0.50;;;9.40;99.90;;;;;;6040693;29;20230;-84
2021/01/30 10:02:36;;;;;;;0.37;0.30;;;9.40;99.90;;;;;;6041658;29;20234;-84
2021/01/30 10:05:38;;;;;;;1.07;0.47;;;9.50;99.90;;;;;;6041040;29;20781;-84
2021/01/30 10:08:42;;;;;;;0.87;0.40;;;9.50;99.90;;;;;;6043857;29;20232;-83
2021/01/30 10:11:54;;;;;;;2.50;0.50;;;9.60;99.90;;;;;;6042705;29;20241;-84
2021/01/30 10:14:58;;;;;;;0.80;0.40;;;9.70;99.90;;;;;;6042211;29;20236;-84
2021/01/30 10:18:06;;;;;;;1.13;0.30;;;9.70;99.90;;;;;;6043622;29;20732;-84
2021/01/30 10:21:10;;;;;;;1.53;0.40;;;9.70;99.90;;;;;;6025652;29;20611;-84
2021/01/30 10:24:15;;;;;;;1.10;0.43;;;9.80;99.90;;;;;;6042077;29;20208;-83
2021/01/30 10:27:29;;;;;;;1.00;0.50;;;9.80;99.90;;;;;;6024595;29;20771;-83
2021/01/30 10:30:32;;;;;;;2.83;0.40;;;9.90;99.90;;;;;;6040245;29;20588;-84
2021/01/30 10:33:37;;;;;;;1.03;0.47;;;10.00;99.90;;;;;;6041010;29;20251;-84
2021/01/30 10:36:39;;;;;;;0.73;0.50;;;10.10;99.90;;;;;;6054075;29;20248;-83
2021/01/30 10:40:04;;;;;;;1.23;0.63;;;10.20;99.90;;;;;;6064848;29;20283;-84
2021/01/30 10:43:15;;;;;;;1.60;0.50;;;10.40;99.60;;;;;;6065772;29;20293;-84
2021/01/30 10:46:43;;;;;;;1.13;0.50;;;10.50;99.40;;;;;;6050030;29;20886;-84
2021/01/30 10:49:45;;;;;;;1.47;0.40;;;10.60;99.30;;;;;;6049942;29;20254;-84
2021/01/30 10:52:49;;;;;;;0.60;0.40;;;10.70;98.90;;;;;;6051226;29;20238;-84
2021/01/30 10:55:52;;;;;;;1.40;0.40;;;10.80;98.80;;;;;;6052462;29;20239;-84
2021/01/30 10:58:57;;;;;;;1.67;0.50;;;10.80;99.20;;;;;;6050010;29;20310;-84
2021/01/30 11:01:59;;;;;;;1.30;0.40;;;10.90;99.00;;;;;;6068003;29;20240;-83
2021/01/30 11:05:07;;;;;;;2.57;0.50;;;11.10;99.90;;;;;;6066825;29;20232;-84
2021/01/30 11:08:09;;;;;;;1.60;0.47;;;11.10;98.00;;;;;;6050361;29;20285;-84
2021/01/30 11:11:21;;;;;;;1.30;0.60;;;11.00;98.20;;;;;;6068091;29;20231;-84
2021/01/30 11:14:29;;;;;;;1.13;0.50;;;10.80;99.10;;;;;;6053406;29;20256;-84
2021/01/30 11:17:32;;;;;;;0.80;0.30;;;11.00;98.90;;;;;;6069992;29;20283;-83
2021/01/30 11:20:44;;;;;;;0.90;0.57;;;11.20;99.70;;;;;;6067664;29;20237;-84
2021/01/30 11:23:49;;;;;;;1.17;0.43;;;11.20;99.40;;;;;;6055207;29;20239;-85
2021/01/30 11:26:51;;;;;;;0.50;0.30;;;11.00;99.60;;;;;;6054850;29;20620;-84
2021/01/30 11:29:52;;;;;;;3.43;0.93;;;11.10;99.90;;;;;;6054861;29;20236;-84
2021/01/30 11:33:14;;;;;;;2.47;0.70;;;11.20;99.80;;;;;;6070529;29;20280;-84
2021/01/30 11:36:16;;;;;;;1.03;0.70;;;11.10;99.30;;;;;;6052677;29;20642;-84
2021/01/30 11:39:33;;;;;;;1.37;0.50;;;10.90;99.90;;;;;;6058667;29;20388;-84
2021/01/30 11:42:35;;;;;;;1.33;0.60;;;10.80;99.90;;;;;;6045757;29;20248;-83
2021/01/30 11:45:37;;;;;;;4.50;0.80;;;10.70;99.90;;;;;;6047709;29;20232;-84
2021/01/30 11:48:39;;;;;;;1.37;0.70;;;10.60;99.90;;;;;;6043234;29;20293;-84
2021/01/30 11:51:42;;;;;;;1.07;0.57;;;10.40;99.90;;;;;;6042877;29;20248;-84
2021/01/30 11:54:45;;;;;;;1.77;0.60;;;10.30;99.90;;;;;;6042159;29;20729;-84
2021/01/30 11:57:46;;;;;;;2.97;0.80;;;10.20;99.90;;;;;;6028648;29;20589;-84
2021/01/30 12:00:49;;;;;;;2.57;0.70;;;10.20;99.90;;;;;;6045475;29;20241;-84
2021/01/30 12:03:53;;;;;;;3.10;0.87;;;10.20;99.90;;;;;;6043721;29;20245;-84
2021/01/30 12:06:55;;;;;;;1.63;0.67;;;10.20;99.90;;;;;;6044044;29;20775;-84
2021/01/30 12:09:57;;;;;;;2.53;0.67;;;10.20;99.90;;;;;;6043639;29;20233;-84
2021/01/30 12:12:59;;;;;;;3.30;0.80;;;10.20;99.90;;;;;;6044356;29;20243;-83
2021/01/30 12:16:00;;;;;;;2.50;0.70;;;10.20;99.90;;;;;;6043398;29;20241;-84
2021/01/30 12:19:02;;;;;;;2.73;1.03;;;10.00;99.90;;;;;;6044785;29;20239;-84
2021/01/30 12:22:04;;;;;;;2.67;0.83;;;9.90;99.90;;;;;;6044287;29;20248;-83
2021/01/30 12:25:07;;;;;;;1.37;0.60;;;9.80;99.90;;;;;;6044924;29;20236;-84
2021/01/30 12:28:22;;;;;;;1.90;0.90;;;9.70;99.90;;;;;;6045307;29;20245;-84
2021/01/30 12:31:24;;;;;;;2.40;0.80;;;9.60;99.90;;;;;;6044717;29;20783;-84
2021/01/30 12:34:26;;;;;;;2.20;0.83;;;9.50;99.90;;;;;;6024948;29;20331;-84
2021/01/30 12:37:28;;;;;;;2.00;0.97;;;9.50;99.90;;;;;;6084410;29;20237;-83
2021/01/30 12:40:40;;;;;;;3.00;1.00;;;9.40;99.90;;;;;;6076817;29;20272;-84
2021/01/30 12:43:44;;;;;;;4.63;1.13;;;9.30;99.90;;;;;;6088530;29;20239;-83
2021/01/30 12:46:46;;;;;;;3.73;1.10;;;9.20;99.90;;;;;;6069357;29;20244;-83
2021/01/30 12:49:49;;;;;;;4.33;1.20;;;9.20;99.90;;;;;;6071694;29;20271;-83
2021/01/30 12:52:51;;;;;;;5.23;1.00;;;9.10;99.90;;;;;;6097134;29;20244;-84
2021/01/30 12:55:53;;;;;;;3.70;1.00;;;9.00;99.90;;;;;;6097120;29;20248;-84
2021/01/30 12:58:54;;;;;;;3.83;1.43;;;8.90;99.90;;;;;;6097443;29;20370;-84
2021/01/30 13:01:56;;;;;;;3.80;1.00;;;8.90;99.90;;;;;;6081177;29;20342;-84
2021/01/30 13:04:58;;;;;;;3.43;1.00;;;8.90;99.90;;;;;;6062737;29;20285;-84
2021/01/30 13:08:02;;;;;;;7.70;1.43;;;8.80;99.90;;;;;;6077909;29;20251;-84
2021/01/30 13:11:05;;;;;;;2.70;0.80;;;8.70;99.90;;;;;;6077287;29;20239;-84
2021/01/30 13:14:07;;;;;;;6.10;1.20;;;8.70;99.90;;;;;;6069383;29;20242;-83
2021/01/30 13:17:10;;;;;;;3.60;0.93;;;8.60;99.90;;;;;;6062663;29;20775;-84
2021/01/30 13:20:15;;;;;;;4.23;1.20;;;8.50;99.90;;;;;;6062236;29;20240;-83
2021/01/30 13:23:16;;;;;;;4.10;1.00;;;8.40;99.90;;;;;;6061775;29;20268;-82
2021/01/30 13:26:18;;;;;;;4.60;1.23;;;8.40;99.90;;;;;;6060585;29;20247;-84
2021/01/30 13:29:20;;;;;;;4.27;1.20;;;8.30;99.90;;;;;;6047878;29;20316;-83
2021/01/30 13:32:22;;;;;;;4.80;1.00;;;8.30;99.90;;;;;;6061429;29;20250;-83
2021/01/30 13:35:27;;;;;;;4.27;1.10;;;8.20;99.90;;;;;;6064333;29;20240;-84
2021/01/30 13:38:29;;;;;;;3.40;0.90;;;8.10;99.90;;;;;;6069041;29;20232;-83
2021/01/30 13:41:35;;;;;;;2.30;0.73;;;7.80;99.90;;;;;;6068576;29;20780;-84
2021/01/30 13:44:37;;;;;;;0.97;0.63;;;7.30;99.90;;;;;;6053699;29;20244;-83
2021/01/30 13:47:40;;;;;;;2.17;0.60;;;7.00;99.90;;;;;;6067893;29;20239;-83
2021/01/30 13:50:43;;;;;;;0.53;0.53;;;6.50;99.90;;;;;;6078890;29;20255;-84
2021/01/30 13:53:45;;;;;;;0.57;0.40;;;6.00;99.90;;;;;;6078752;29;20657;-84
2021/01/30 13:56:47;;;;;;;0.40;0.40;;;5.70;99.90;;;;;;6062452;29;20610;-84
2021/01/30 13:59:48;;;;;;;0.57;0.50;;;5.40;99.90;;;;;;6063345;29;20244;-84
2021/01/30 14:02:50;;;;;;;1.23;0.53;;;5.10;99.90;;;;;;6078234;29;20238;-84
2021/01/30 14:05:53;;;;;;;1.33;0.50;;;4.90;99.90;;;;;;6064599;29;20237;-84
2021/01/30 14:08:54;;;;;;;1.37;0.67;;;4.70;99.90;;;;;;6063609;29;20239;-84
2021/01/30 14:11:56;;;;;;;0.67;0.60;;;4.60;99.90;;;;;;6080664;29;20346;-83
2021/01/30 14:14:58;;;;;;;1.43;0.40;;;4.40;99.90;;;;;;6081510;29;20784;-84
2021/01/30 14:18:02;;;;;;;0.60;0.60;;;4.30;99.90;;;;;;6078524;29;20262;-84
2021/01/30 14:21:05;;;;;;;0.60;0.60;;;4.20;99.90;;;;;;6079523;29;20232;-84
2021/01/30 14:24:07;;;;;;;0.87;0.50;;;4.10;99.90;;;;;;6078775;29;20315;-84
2021/01/30 14:27:09;;;;;;;0.67;0.50;;;4.10;99.90;;;;;;6078965;29;20583;-84
2021/01/30 14:30:12;;;;;;;0.43;0.40;;;4.00;99.90;;;;;;6063729;29;20224;-85
2021/01/30 14:33:14;;;;;;;0.73;0.50;;;4.00;99.90;;;;;;6078391;29;20316;-85
2021/01/30 14:36:16;;;;;;;0.97;0.50;;;4.10;99.90;;;;;;6059068;29;20241;-85
2021/01/30 14:39:18;;;;;;;0.70;0.40;;;4.10;99.90;;;;;;6046162;29;20249;-84
2021/01/30 14:42:20;;;;;;;1.87;0.43;;;4.10;99.90;;;;;;6014512;29;20219;-84
2021/01/30 14:45:22;;;;;;;0.57;0.43;;;4.20;99.90;;;;;;6015477;29;20635;-84
2021/01/30 14:48:24;;;;;;;0.70;0.63;;;4.20;99.90;;;;;;5999022;29;20234;-84
2021/01/30 14:51:30;;;;;;;0.73;0.60;;;4.20;99.90;;;;;;6013939;29;20317;-84
2021/01/30 14:54:32;;;;;;;0.53;0.53;;;4.10;99.90;;;;;;6013916;29;20313;-84
2021/01/30 14:57:34;;;;;;;0.50;0.50;;;4.00;99.90;;;;;;6013546;29;20253;-84
2021/01/30 15:00:37;;;;;;;0.80;0.80;;;4.00;99.90;;;;;;6013995;29;20996;-84
2021/01/30 15:03:40;;;;;;;0.80;0.73;;;3.90;99.90;;;;;;6000171;29;20238;-84
2021/01/30 15:06:41;;;;;;;0.80;0.70;;;3.80;99.90;;;;;;6002435;29;20241;-84
2021/01/30 15:09:43;;;;;;;0.70;0.70;;;3.70;99.90;;;;;;6002165;29;20230;-84
2021/01/30 15:12:47;;;;;;;1.00;0.77;;;3.60;99.90;;;;;;6002116;29;20256;-84
2021/01/30 15:15:49;;;;;;;0.60;0.57;;;3.50;99.90;;;;;;5996984;29;20672;-85
2021/01/30 15:18:51;;;;;;;1.17;0.97;;;3.50;99.90;;;;;;6015524;29;20230;-84
2021/01/30 15:21:56;;;;;;;2.73;1.40;;;3.40;99.90;;;;;;6012424;29;20245;-85
2021/01/30 15:24:57;;;;;;;1.80;1.37;;;3.40;99.90;;;;;;5997845;29;20644;-84
2021/01/30 15:27:59;;;;;;;2.27;1.97;;;3.30;99.90;;;;;;6013697;29;20237;-84
2021/01/30 15:31:01;;;;;;;3.17;2.57;;;3.20;99.90;;;;;;5997933;29;20240;-85
2021/01/30 15:34:03;;;;;;;2.80;2.17;;;3.00;99.90;;;;;;5997222;29;20254;-84
2021/01/30 15:37:06;;;;;;;3.13;2.30;;;2.90;99.90;;;;;;6052883;29;20326;-84
2021/01/30 15:40:10;;;;;;;3.53;2.70;;;2.90;99.90;;;;;;6058377;29;20237;-84
2021/01/30 15:43:12;;;;;;;3.43;2.40;;;2.80;99.90;;;;;;6058245;29;20232;-85
2021/01/30 15:46:14;;;;;;;4.10;2.97;;;2.70;99.90;;;;;;6057854;29;20757;-85
2021/01/30 15:49:16;;;;;;;3.47;2.43;;;2.70;99.90;;;;;;6059136;29;20234;-84
2021/01/30 15:52:21;;;;;;;3.43;2.33;;;2.60;99.90;;;;;;6058159;29;20271;-85
2021/01/30 15:55:24;;;;;;;3.77;2.40;;;2.50;99.90;;;;;;6057565;29;20248;-84
2021/01/30 15:58:28;;;;;;;4.20;3.10;;;2.50;99.90;;;;;;6057383;29;20279;-84
2021/01/30 16:01:30;;;;;;;4.63;2.90;;;2.40;99.90;;;;;;6058139;29;20244;-84
2021/01/30 16:04:32;;;;;;;3.47;2.57;;;2.40;99.90;;;;;;6057870;29;20243;-84
2021/01/30 16:07:34;;;;;;;4.07;3.20;;;2.30;99.90;;;;;;6060890;29;20224;-84
2021/01/30 16:10:36;;;;;;;3.97;3.30;;;2.10;99.90;;;;;;6057901;29;20251;-84
2021/01/30 16:13:38;;;;;;;4.77;3.20;;;2.00;99.90;;;;;;6058506;29;20237;-84
2021/01/30 16:16:39;;;;;;;6.30;4.00;;;2.00;99.90;;;;;;6057895;29;20410;-84
2021/01/30 16:19:43;;;;;;;7.03;4.20;;;1.90;99.90;;;;;;6058408;29;20237;-84
2021/01/30 16:22:45;;;;;;;7.20;4.70;;;1.80;99.90;;;;;;6058028;29;20633;-84
2021/01/30 16:25:49;;;;;;;6.43;4.73;;;1.60;99.90;;;;;;6061882;29;20232;-84